Slater, CO (81653)

4:44 PM MST on January 21, 2017 (GMT -0700)
Wilderness Ranch | | Change Station
Active Advisory: Winter Weather Advisory Active Notice: Public Information Statement

Elev 8179 ft 40.87 °N, 107.43 °W | Updated 1 minute ago

Overcast
Overcast
21.9 °F
Feels Like 14 °F
N
6.0
Wind Variable Wind from WSW

Today
High -- | Low -- °F
--% Chance of Precip.
Yesterday
High -- | Low -- °F
Precip. -- in
Pressure 29.57 in
Visibility 10.0 miles
Clouds Scattered Clouds 1500 ft
Overcast 2700 ft
Windchill 14 °F
Dew Point 21 °F
Humidity 98%
Rainfall 0.00 in
Snow Depth Not available.
7:28 AM 5:13 PM
Waning Crescent, 31% visible
METAR KDWX 212335Z AUTO 25004KT 10SM SCT015 OVC027 M02/M05 A2957 RMK AO2 T10201053
Pressure 29.57 in
Visibility 10.0 miles
Clouds Scattered Clouds 1500 ft
Overcast 2700 ft
Windchill 14 °F
Dew Point 21 °F
Humidity 98%
Rainfall 0.00 in
Snow Depth Not available.
7:28 AM 5:13 PM
Waning Crescent, 31% visible
METAR KDWX 212335Z AUTO 25004KT 10SM SCT015 OVC027 M02/M05 A2957 RMK AO2 T10201053

Get Your Daily Forecast Email!

Thanks for signing up!

Be on the lookout for a verification email in your inbox.

You'll start receiving the daily forecast at 8 AM.

×

10-Day Weather Forecast

Almanac

Astronomy

Jan. 21, 2017 Rise Set
Actual Time
Civil Twilight
Nautical Twilight
Astronomical Twilight
Moon
Length of Visible Light
Length of Day
Tomorrow will be .
, % of the Moon is Illuminated

Today's Extremes

State Highs State Lows

Community

WunderPhotos

Upload Photos

1,962,540 photos uploaded!

WunderBlog® & News

Nearby

Air Quality

  Air Quality AQ Index Pollutant
Not available.

Snow Depth

Station Depth Elevation

Earthquake Activity

City Distance Mag. Time & Date
Minimum magnitude displayed is 2.5.

Coastal Water Temperatures

Place Temperature

Stations

Nearby Weather Stations

Station Location Temp. Windchill Dew Point Humidity Wind Precip. Elev Updated Type
                   

Watches & Warnings

Winter Weather Advisory
Issued: 12:56 PM MST Jan. 21, 2017 – National Weather Service

... Winter Weather Advisory remains in effect until 6 am MST
Sunday above 8500 feet...

* locations include the city of... Columbine.

* Timing... snow showers are expected to move back over the area
this evening and continue through late tonight.

* Snow accumulation... additional 2 to 4 inches with storm total
snowfall ranging from 4 to 8 inches.

* Winds... west 10 to 20 mph with gusts up to 30 mph.

* Impacts... mountain roadways will be snow packed with winter
driving conditions continuing through the weekend.
Visibilities will be reduced to under a half mile at times.

Precautionary/preparedness actions...

A Winter Weather Advisory means that periods of snow and/or
blowing snow will cause travel difficulties. Be prepared for
slippery roads and limited visibilities... and use caution while
driving.